createdAt,value
2022-11-20T00:00:39.475Z,6.10
2022-11-20T00:03:06.539Z,6.41
2022-11-20T00:05:33.922Z,6.41
2022-11-20T00:08:00.757Z,6.31
2022-11-20T00:10:27.912Z,6.23
2022-11-20T00:12:54.803Z,6.11
2022-11-20T00:15:21.735Z,5.91
2022-11-20T00:18:09.016Z,5.80
2022-11-20T00:20:49.642Z,6.18
2022-11-20T00:23:36.978Z,6.08
2022-11-20T00:26:24.065Z,5.91
2022-11-20T00:28:52.211Z,6.03
2022-11-20T00:31:40.909Z,6.05
2022-11-20T00:34:21.456Z,5.93
2022-11-20T00:37:08.951Z,5.92
2022-11-20T00:40:09.952Z,5.90
2022-11-20T00:42:50.389Z,5.86
2022-11-20T00:45:17.267Z,6.02
2022-11-20T00:47:44.192Z,6.13
2022-11-20T00:50:11.068Z,6.08
2022-11-20T00:52:50.984Z,5.94
2022-11-20T00:55:31.614Z,5.57
2022-11-20T00:57:58.382Z,5.52
2022-11-20T01:00:26.249Z,5.61
2022-11-20T01:03:12.934Z,5.70
2022-11-20T01:05:53.476Z,5.55
2022-11-20T01:08:20.311Z,5.63
2022-11-20T01:10:47.221Z,5.52
2022-11-20T01:13:32.570Z,5.45
2022-11-20T01:16:03.719Z,5.24
2022-11-20T01:18:30.539Z,4.96
2022-11-20T01:21:01.025Z,4.94
2022-11-20T01:23:48.947Z,4.98
2022-11-20T01:26:30.765Z,5.09
2022-11-20T01:29:18.203Z,5.14
2022-11-20T01:32:19.014Z,5.10
2022-11-20T01:34:59.375Z,5.17
2022-11-20T01:37:27.236Z,5.17
2022-11-20T01:39:54.169Z,4.99
2022-11-20T01:42:39.539Z,4.70
2022-11-20T01:45:25.428Z,4.81
2022-11-20T01:47:52.226Z,4.85
2022-11-20T01:50:22.114Z,4.86
2022-11-20T01:52:55.897Z,4.66
2022-11-20T01:55:25.513Z,4.59
2022-11-20T01:57:52.774Z,4.55
2022-11-20T02:00:20.888Z,4.52
2022-11-20T02:02:50.250Z,4.45
2022-11-20T02:05:24.509Z,4.72
2022-11-20T02:07:51.592Z,4.82
2022-11-20T02:10:18.446Z,4.76
2022-11-20T02:13:03.851Z,4.70
2022-11-20T02:15:51.966Z,4.71
2022-11-20T02:18:53.067Z,4.68
2022-11-20T02:21:51.932Z,4.70
2022-11-20T02:24:39.023Z,4.63
2022-11-20T02:27:19.679Z,4.55
2022-11-20T02:30:11.995Z,4.52
2022-11-20T02:32:53.774Z,4.50
2022-11-20T02:35:41.026Z,4.39
2022-11-20T02:38:21.742Z,4.41
2022-11-20T02:40:52.752Z,4.41
2022-11-20T02:43:22.345Z,4.48
2022-11-20T02:45:49.306Z,4.43
2022-11-20T02:48:37.023Z,4.45
2022-11-20T02:51:17.509Z,4.49
2022-11-20T02:53:44.392Z,4.35
2022-11-20T02:56:11.492Z,4.14
2022-11-20T02:58:38.716Z,4.06
2022-11-20T03:01:05.843Z,3.96
2022-11-20T03:03:32.955Z,3.97
2022-11-20T03:06:00.040Z,4.05
2022-11-20T03:08:27.340Z,3.92
2022-11-20T03:10:54.056Z,3.98
2022-11-20T03:13:21.374Z,3.79
2022-11-20T03:15:48.327Z,3.77
2022-11-20T03:18:15.844Z,3.73
2022-11-20T03:21:03.027Z,3.82
2022-11-20T03:24:04.003Z,3.74
2022-11-20T03:27:05.027Z,3.71
2022-11-20T03:30:06.036Z,3.66
2022-11-20T03:32:54.172Z,3.77
2022-11-20T03:35:21.213Z,4.21
2022-11-20T03:37:48.002Z,4.38
2022-11-20T03:40:14.930Z,4.44
2022-11-20T03:42:47.920Z,4.46
2022-11-20T03:45:15.815Z,4.40
2022-11-20T03:47:42.956Z,4.31
2022-11-20T03:50:10.836Z,4.15
2022-11-20T03:52:58.050Z,4.18
2022-11-20T03:55:38.614Z,4.12
2022-11-20T03:58:05.451Z,4.18
2022-11-20T04:00:52.049Z,4.21
2022-11-20T04:03:51.814Z,4.19
2022-11-20T04:06:22.831Z,4.08
2022-11-20T04:08:53.791Z,4.11
2022-11-20T04:11:20.949Z,4.14
2022-11-20T04:13:49.427Z,4.28
2022-11-20T04:16:16.399Z,4.25
2022-11-20T04:18:44.286Z,4.38
2022-11-20T04:21:11.227Z,4.39
2022-11-20T04:23:58.039Z,4.35
2022-11-20T04:26:59.079Z,4.07
2022-11-20T04:29:39.432Z,3.77
2022-11-20T04:32:26.039Z,3.37
2022-11-20T04:35:06.668Z,3.07
2022-11-20T04:37:33.612Z,2.89
2022-11-20T04:40:00.447Z,2.90
2022-11-20T04:42:30.271Z,2.82
2022-11-20T04:44:57.061Z,2.72
2022-11-20T04:47:23.935Z,2.56
2022-11-20T04:49:51.025Z,2.48
2022-11-20T04:52:17.883Z,2.38
2022-11-20T04:55:05.135Z,2.32
2022-11-20T04:57:52.486Z,2.20
2022-11-20T05:00:19.436Z,2.28
2022-11-20T05:02:46.368Z,2.31
2022-11-20T05:05:13.219Z,2.26
2022-11-20T05:07:40.082Z,2.37
2022-11-20T05:10:08.007Z,2.46
2022-11-20T05:12:34.761Z,2.43
2022-11-20T05:15:01.715Z,2.39
2022-11-20T05:17:28.642Z,2.32
2022-11-20T05:19:55.395Z,2.40
2022-11-20T05:22:22.241Z,2.44
2022-11-20T05:25:09.096Z,2.66
2022-11-20T05:28:10.077Z,2.75
2022-11-20T05:31:04.191Z,3.04
2022-11-20T05:33:58.143Z,2.73
2022-11-20T05:36:38.596Z,2.89
2022-11-20T05:39:05.405Z,2.97
2022-11-20T05:41:52.083Z,3.09
2022-11-20T05:44:32.727Z,3.09
2022-11-20T05:46:59.478Z,3.01
2022-11-20T05:49:26.246Z,3.07
2022-11-20T05:51:53.152Z,3.30
2022-11-20T05:54:20.065Z,3.13
2022-11-20T05:56:46.892Z,3.12
2022-11-20T05:59:13.735Z,3.13
2022-11-20T06:01:40.619Z,2.95
2022-11-20T06:04:07.425Z,3.21
2022-11-20T06:06:34.524Z,3.04
2022-11-20T06:09:01.273Z,3.03
2022-11-20T06:11:30.509Z,2.94
2022-11-20T06:14:10.167Z,3.10
2022-11-20T06:16:50.727Z,2.91
2022-11-20T06:19:17.657Z,2.88
2022-11-20T06:21:44.598Z,2.87
2022-11-20T06:24:33.102Z,2.93
2022-11-20T06:27:13.746Z,2.68
2022-11-20T06:29:40.492Z,2.58
2022-11-20T06:32:27.185Z,2.76
2022-11-20T06:35:28.208Z,2.80
2022-11-20T06:38:08.602Z,2.70
2022-11-20T06:40:35.558Z,2.63
2022-11-20T06:43:02.572Z,2.76
2022-11-20T06:45:29.398Z,2.92
2022-11-20T06:47:58.054Z,2.98
2022-11-20T06:50:25.168Z,3.05
2022-11-20T06:52:51.936Z,3.11
2022-11-20T06:55:18.856Z,3.12
2022-11-20T06:57:45.611Z,3.10
2022-11-20T07:00:12.685Z,3.22
2022-11-20T07:02:39.489Z,3.32
2022-11-20T07:05:06.393Z,3.32
2022-11-20T07:07:33.392Z,3.44
2022-11-20T07:10:00.347Z,3.47
2022-11-20T07:12:27.150Z,3.45
2022-11-20T07:14:53.970Z,3.47
2022-11-20T07:17:41.119Z,3.38
2022-11-20T07:20:28.412Z,3.63
2022-11-20T07:22:57.938Z,3.75
2022-11-20T07:25:45.226Z,3.97
2022-11-20T07:28:25.529Z,4.03
2022-11-20T07:31:17.396Z,4.11
2022-11-20T07:33:59.632Z,4.13
2022-11-20T07:36:26.579Z,4.15
2022-11-20T07:38:53.668Z,4.32
2022-11-20T07:41:41.176Z,4.58
2022-11-20T07:44:42.150Z,4.66
2022-11-20T07:47:22.752Z,4.66
2022-11-20T07:49:49.504Z,4.71
2022-11-20T07:52:16.496Z,4.66
2022-11-20T07:54:43.246Z,4.81
2022-11-20T07:57:10.124Z,4.85
2022-11-20T07:59:36.884Z,5.09
2022-11-20T08:02:03.697Z,4.90
2022-11-20T08:04:30.528Z,4.93
2022-11-20T08:07:18.244Z,4.59
2022-11-20T08:09:58.944Z,4.68
2022-11-20T08:13:04.209Z,5.21
2022-11-20T08:15:48.621Z,5.25
2022-11-20T08:18:30.541Z,5.33
2022-11-20T08:20:59.250Z,5.56
2022-11-20T08:23:46.189Z,5.79
2022-11-20T08:26:27.135Z,6.21
2022-11-20T08:28:55.479Z,6.21
2022-11-20T08:31:42.159Z,5.78
2022-11-20T08:34:22.585Z,5.30
2022-11-20T08:36:49.415Z,5.19
2022-11-20T08:39:16.760Z,5.40
2022-11-20T08:41:43.627Z,5.61
2022-11-20T08:44:30.246Z,5.77
2022-11-20T08:47:31.250Z,6.41
2022-11-20T08:50:12.448Z,6.52
2022-11-20T08:52:40.027Z,6.53
2022-11-20T08:55:07.435Z,6.80
2022-11-20T08:57:35.037Z,6.72
2022-11-20T09:00:09.811Z,7.25
2022-11-20T09:02:37.043Z,7.64
2022-11-20T09:05:04.113Z,7.84
2022-11-20T09:07:31.532Z,8.02
2022-11-20T09:10:16.835Z,8.04
2022-11-20T09:12:45.316Z,8.33
2022-11-20T09:15:12.979Z,8.29
2022-11-20T09:18:10.284Z,8.18
2022-11-20T09:20:51.103Z,8.48
2022-11-20T09:23:38.222Z,8.58
2022-11-20T09:26:24.903Z,8.37
2022-11-20T09:28:55.413Z,8.64
2022-11-20T09:31:45.333Z,8.55
2022-11-20T09:34:25.707Z,8.66
2022-11-20T09:36:53.055Z,8.33
2022-11-20T09:39:20.163Z,8.45
2022-11-20T09:42:01.619Z,8.04
2022-11-20T09:44:47.415Z,7.99
2022-11-20T09:47:23.713Z,8.47
2022-11-20T09:49:53.699Z,8.33
2022-11-20T09:52:30.091Z,8.20
2022-11-20T09:55:18.395Z,8.51
2022-11-20T09:58:27.296Z,8.54
2022-11-20T10:01:16.567Z,7.74
2022-11-20T10:03:49.808Z,7.66
2022-11-20T10:06:45.262Z,8.57
2022-11-20T10:09:31.997Z,8.89
2022-11-20T10:11:58.852Z,8.49
2022-11-20T10:14:29.064Z,8.51
2022-11-20T10:17:28.342Z,8.35
2022-11-20T10:20:17.261Z,8.30
2022-11-20T10:23:10.757Z,8.23
2022-11-20T10:26:05.333Z,8.43
2022-11-20T10:29:04.702Z,9.02
2022-11-20T10:31:55.248Z,8.82
2022-11-20T10:35:18.245Z,8.91
2022-11-20T10:38:04.034Z,9.89
2022-11-20T10:40:39.565Z,10.37
2022-11-20T10:43:14.249Z,9.82
2022-11-20T10:45:54.386Z,9.91
2022-11-20T10:48:26.574Z,9.72
2022-11-20T10:51:16.852Z,9.26
2022-11-20T10:53:53.777Z,9.54
2022-11-20T10:56:21.161Z,9.58
2022-11-20T10:58:57.532Z,9.35
2022-11-20T11:01:24.846Z,10.28
2022-11-20T11:03:52.945Z,9.88
2022-11-20T11:06:41.920Z,10.25
2022-11-20T11:09:17.773Z,10.93
2022-11-20T11:11:44.826Z,10.94
2022-11-20T11:14:32.386Z,11.31
2022-11-20T11:17:53.285Z,11.01
2022-11-20T11:20:34.080Z,9.92
2022-11-20T11:23:01.346Z,10.43
2022-11-20T11:25:51.290Z,9.68
2022-11-20T11:28:32.445Z,9.62
2022-11-20T11:31:19.995Z,9.64
2022-11-20T11:34:12.764Z,9.40
2022-11-20T11:36:39.872Z,9.30
2022-11-20T11:39:09.594Z,9.99
2022-11-20T11:41:39.700Z,9.52
2022-11-20T11:44:44.402Z,9.97
2022-11-20T11:47:45.420Z,9.63
2022-11-20T11:50:41.003Z,9.54
2022-11-20T11:56:44.722Z,9.72
2022-11-20T11:59:34.502Z,9.72
2022-11-20T12:02:34.159Z,9.77
2022-11-20T12:05:20.775Z,10.04
2022-11-20T12:08:00.572Z,10.01
2022-11-20T12:10:36.682Z,9.85
2022-11-20T12:13:13.108Z,9.74
2022-11-20T12:16:01.309Z,10.25
2022-11-20T12:19:06.271Z,10.20
2022-11-20T12:21:46.688Z,10.04
2022-11-20T12:24:44.344Z,10.25
2022-11-20T12:27:30.943Z,10.26
2022-11-20T12:30:23.552Z,10.15
2022-11-20T12:33:11.073Z,10.08
2022-11-20T12:35:57.066Z,10.08
2022-11-20T12:38:39.638Z,10.16
2022-11-20T12:41:35.669Z,10.05
2022-11-20T12:44:40.269Z,10.28
2022-11-20T12:47:19.525Z,10.64
2022-11-20T12:49:57.853Z,10.78
2022-11-20T12:52:39.291Z,10.60
2022-11-20T12:55:30.685Z,10.74
2022-11-20T12:58:21.460Z,10.77
2022-11-20T13:00:56.343Z,10.58
2022-11-20T13:03:36.224Z,10.38
2022-11-20T13:06:42.522Z,10.35
2022-11-20T13:09:43.376Z,10.46
2022-11-20T13:12:24.329Z,10.54
2022-11-20T13:14:51.527Z,10.51
2022-11-20T13:17:57.314Z,10.37
2022-11-20T13:20:59.325Z,10.59
2022-11-20T13:24:00.356Z,10.77
2022-11-20T13:26:42.421Z,10.64
2022-11-20T13:29:12.844Z,10.58
2022-11-20T13:31:44.401Z,10.55
2022-11-20T13:34:13.895Z,10.49
2022-11-20T13:37:08.593Z,10.55
2022-11-20T13:39:48.979Z,10.59
2022-11-20T13:42:15.924Z,10.61
2022-11-20T13:45:08.340Z,10.49
2022-11-20T13:48:09.390Z,10.54
2022-11-20T13:51:01.871Z,10.64
2022-11-20T13:53:28.877Z,10.51
2022-11-20T13:56:00.590Z,10.50
2022-11-20T13:58:36.884Z,10.60
2022-11-20T14:01:10.473Z,10.58
2022-11-20T14:04:04.618Z,10.79
2022-11-20T14:06:35.682Z,10.70
2022-11-20T14:09:02.503Z,10.78
2022-11-20T14:11:30.506Z,10.56
2022-11-20T14:14:40.396Z,10.66
2022-11-20T14:17:24.272Z,10.64
2022-11-20T14:19:52.611Z,10.61
2022-11-20T14:22:40.375Z,10.61
2022-11-20T14:25:41.481Z,10.63
2022-11-20T14:28:43.370Z,10.54
2022-11-20T14:31:26.555Z,10.56
2022-11-20T14:33:54.524Z,10.58
2022-11-20T14:36:23.819Z,10.35
2022-11-20T14:38:51.540Z,10.28
2022-11-20T14:41:23.317Z,10.24
2022-11-20T14:44:00.834Z,10.22
2022-11-20T14:46:32.472Z,10.22
2022-11-20T14:49:02.201Z,10.17
2022-11-20T14:51:49.395Z,10.22
2022-11-20T14:54:45.945Z,10.09
2022-11-20T14:57:23.367Z,10.02
2022-11-20T14:59:50.550Z,10.00
2022-11-20T15:02:17.647Z,9.98
2022-11-20T15:05:15.092Z,9.89
2022-11-20T15:08:15.277Z,9.84
2022-11-20T15:10:49.793Z,9.78
2022-11-20T15:13:36.995Z,9.64
2022-11-20T15:16:05.698Z,9.55
2022-11-20T15:18:45.632Z,9.45
2022-11-20T15:21:29.889Z,9.33
2022-11-20T15:24:30.965Z,9.17
2022-11-20T15:27:31.499Z,9.05
2022-11-20T15:30:34.030Z,8.89
2022-11-20T15:33:10.908Z,8.77
2022-11-20T15:35:58.505Z,8.65
2022-11-20T15:38:38.969Z,8.53
2022-11-20T15:41:06.431Z,8.39
2022-11-20T15:43:33.944Z,8.34
2022-11-20T15:46:11.972Z,8.21
2022-11-20T15:48:42.082Z,8.08
2022-11-20T15:51:17.873Z,7.94
2022-11-20T15:53:45.046Z,7.78
2022-11-20T15:56:15.841Z,7.65
2022-11-20T15:58:43.100Z,7.56
2022-11-20T16:01:18.756Z,7.51
2022-11-20T16:03:46.659Z,7.41
2022-11-20T16:06:13.869Z,7.29
2022-11-20T16:09:01.499Z,7.16
2022-11-20T16:11:42.053Z,7.02
2022-11-20T16:14:47.465Z,6.92
2022-11-20T16:17:50.479Z,6.82
2022-11-20T16:20:51.492Z,6.77
2022-11-20T16:23:39.413Z,6.70
2022-11-20T16:26:40.432Z,6.60
2022-11-20T16:29:22.275Z,6.53
2022-11-20T16:31:49.481Z,6.68
2022-11-20T16:34:36.490Z,6.69
2022-11-20T16:37:20.256Z,6.90
2022-11-20T16:39:50.346Z,6.87
2022-11-20T16:42:33.487Z,6.70
2022-11-20T16:45:35.983Z,6.55
2022-11-20T16:48:02.739Z,6.43
2022-11-20T16:50:29.797Z,6.35
2022-11-20T16:53:16.450Z,6.29
2022-11-20T16:55:56.845Z,6.23
2022-11-20T16:58:23.620Z,6.26
2022-11-20T17:00:51.976Z,6.19
2022-11-20T17:03:19.007Z,6.22
2022-11-20T17:05:45.931Z,6.04
2022-11-20T17:08:12.784Z,6.03
2022-11-20T17:10:39.748Z,6.17
2022-11-20T17:13:07.384Z,6.16
2022-11-20T17:15:54.482Z,6.01
2022-11-20T17:18:35.192Z,5.94
2022-11-20T17:21:05.500Z,5.94
2022-11-20T17:23:53.497Z,5.93
2022-11-20T17:26:55.466Z,5.98
2022-11-20T17:29:41.782Z,5.88
2022-11-20T17:32:11.934Z,5.76
2022-11-20T17:34:39.075Z,5.88
2022-11-20T17:37:37.537Z,5.69
2022-11-20T17:40:38.517Z,5.52
2022-11-20T17:43:19.232Z,5.58
2022-11-20T17:45:46.319Z,5.45
2022-11-20T17:48:33.548Z,5.53
2022-11-20T17:51:18.623Z,5.78
2022-11-20T17:54:06.525Z,5.75
2022-11-20T17:57:05.744Z,5.49
2022-11-20T17:59:32.541Z,5.47
2022-11-20T18:02:03.441Z,5.45
2022-11-20T18:04:50.544Z,5.33
2022-11-20T18:07:51.705Z,5.09
2022-11-20T18:10:52.581Z,4.99
2022-11-20T18:13:53.000Z,5.00
2022-11-20T18:16:42.056Z,4.99
2022-11-20T18:19:55.733Z,4.95
2022-11-20T18:23:04.510Z,4.89
2022-11-20T18:26:05.550Z,4.87
2022-11-20T18:29:03.358Z,5.02
2022-11-20T18:31:47.498Z,4.89
2022-11-20T18:34:20.767Z,5.05
2022-11-20T18:36:51.210Z,4.95
2022-11-20T18:39:22.995Z,4.79
2022-11-20T18:45:00.578Z,4.81
2022-11-20T18:47:31.507Z,4.80
2022-11-20T18:53:37.595Z,4.87
2022-11-20T18:56:18.757Z,4.88
2022-11-20T18:59:05.751Z,5.02
2022-11-20T19:01:46.891Z,4.97
2022-11-20T19:04:15.400Z,5.17
2022-11-20T19:06:43.533Z,5.51
2022-11-20T19:09:11.828Z,5.56
2022-11-20T19:11:58.567Z,5.43
2022-11-20T19:14:59.520Z,5.32
2022-11-20T19:18:00.554Z,5.42
2022-11-20T19:21:01.572Z,5.06
2022-11-20T19:24:02.557Z,5.09
2022-11-20T19:27:03.547Z,4.88
2022-11-20T19:30:09.552Z,4.90
2022-11-20T19:32:50.241Z,4.89
2022-11-20T19:35:37.597Z,4.97
2022-11-20T19:38:38.579Z,4.77
2022-11-20T19:41:20.509Z,4.95
2022-11-20T19:44:07.572Z,4.76
2022-11-20T19:46:48.240Z,4.92
2022-11-20T19:49:15.264Z,4.91
2022-11-20T19:51:46.768Z,5.04
2022-11-20T19:54:14.031Z,4.91
2022-11-20T19:56:41.078Z,5.02
2022-11-20T19:59:28.740Z,4.72
2022-11-20T20:02:29.768Z,4.70
2022-11-20T20:05:09.965Z,5.14
2022-11-20T20:07:36.927Z,5.32
2022-11-20T20:10:24.570Z,5.28
2022-11-20T20:13:05.255Z,5.39
2022-11-20T20:15:32.378Z,5.16
2022-11-20T20:17:59.249Z,5.10
2022-11-20T20:20:46.557Z,5.04
2022-11-20T20:23:47.572Z,5.10
2022-11-20T20:26:48.559Z,5.21
2022-11-20T20:29:29.832Z,5.04
2022-11-20T20:31:56.868Z,5.03
2022-11-20T20:34:23.840Z,4.76
2022-11-20T20:36:50.794Z,4.60
2022-11-20T20:39:37.715Z,4.48
2022-11-20T20:42:19.648Z,4.42
2022-11-20T20:45:05.308Z,4.67
2022-11-20T20:47:54.612Z,4.65
2022-11-20T20:50:35.277Z,4.28
2022-11-20T20:53:02.178Z,4.32
2022-11-20T20:55:29.276Z,4.55
2022-11-20T20:57:56.528Z,4.57
2022-11-20T21:00:23.424Z,4.39
2022-11-20T21:02:50.362Z,4.16
2022-11-20T21:05:17.545Z,4.02
2022-11-20T21:08:03.160Z,3.96
2022-11-20T21:10:50.683Z,3.96
2022-11-20T21:13:52.607Z,4.15
2022-11-20T21:16:50.587Z,4.03
2022-11-20T21:19:44.295Z,3.94
2022-11-20T21:22:36.330Z,3.97
2022-11-20T21:25:37.614Z,4.16
2022-11-20T21:28:18.512Z,3.94
2022-11-20T21:30:46.027Z,4.20
2022-11-20T21:33:33.666Z,4.39
2022-11-20T21:36:15.804Z,4.39
2022-11-20T21:38:42.930Z,4.32
2022-11-20T21:41:10.982Z,4.22
2022-11-20T21:43:38.187Z,4.10
2022-11-20T21:46:06.422Z,3.93
2022-11-20T21:48:33.679Z,4.00
2022-11-20T21:51:20.032Z,4.16
2022-11-20T21:53:47.426Z,4.15
2022-11-20T21:56:19.955Z,4.19
2022-11-20T21:58:47.560Z,4.26
2022-11-20T22:01:38.705Z,4.24
2022-11-20T22:04:20.048Z,4.27
2022-11-20T22:06:47.022Z,4.27
2022-11-20T22:09:13.812Z,4.41
2022-11-20T22:12:00.619Z,4.53
2022-11-20T22:15:01.665Z,4.39
2022-11-20T22:18:00.350Z,4.65
2022-11-20T22:20:47.639Z,4.71
2022-11-20T22:23:48.657Z,4.46
2022-11-20T22:26:49.604Z,4.46
2022-11-20T22:29:50.640Z,4.45
2022-11-20T22:32:31.030Z,4.39
2022-11-20T22:34:57.877Z,4.54
2022-11-20T22:37:24.670Z,4.45
2022-11-20T22:39:51.503Z,4.46
2022-11-20T22:42:18.318Z,4.57
2022-11-20T22:44:45.079Z,4.44
2022-11-20T22:47:11.952Z,4.56
2022-11-20T22:49:38.801Z,4.62
2022-11-20T22:52:05.671Z,4.73
2022-11-20T22:54:32.574Z,4.66
2022-11-20T22:56:59.399Z,4.61
2022-11-20T22:59:26.390Z,4.68
2022-11-20T23:02:19.696Z,4.80
2022-11-20T23:05:20.657Z,4.70
2022-11-20T23:08:21.646Z,4.64
2022-11-20T23:11:07.227Z,4.69
2022-11-20T23:13:34.821Z,4.65
2022-11-20T23:16:22.132Z,4.61
2022-11-20T23:18:53.056Z,4.73
2022-11-20T23:21:20.136Z,4.64
2022-11-20T23:24:20.646Z,4.60
2022-11-20T23:27:24.823Z,4.54
2022-11-20T23:30:08.686Z,4.48
2022-11-20T23:32:35.547Z,4.32
2022-11-20T23:35:02.467Z,4.22
2022-11-20T23:37:29.381Z,4.16
2022-11-20T23:39:56.264Z,4.14
2022-11-20T23:42:23.126Z,4.14
2022-11-20T23:44:50.047Z,4.16
2022-11-20T23:47:16.829Z,4.20
2022-11-20T23:49:43.712Z,4.05
2022-11-20T23:52:32.712Z,3.86
2022-11-20T23:55:33.692Z,3.62
2022-11-20T23:58:14.586Z,3.54
